sensor_id;sensor_type;location;lat;lon;timestamp;temperature;humidity
21171;DHT22;10743;52.160;20.910;2022-10-31T00:01:26;26.00;37.50
21171;DHT22;10743;52.160;20.910;2022-10-31T00:03:54;26.00;37.50
21171;DHT22;10743;52.160;20.910;2022-10-31T00:06:22;26.10;37.50
21171;DHT22;10743;52.160;20.910;2022-10-31T00:08:57;26.00;37.40
21171;DHT22;10743;52.160;20.910;2022-10-31T00:11:26;26.00;37.30
21171;DHT22;10743;52.160;20.910;2022-10-31T00:13:53;26.00;37.40
21171;DHT22;10743;52.160;20.910;2022-10-31T00:16:22;26.00;37.40
21171;DHT22;10743;52.160;20.910;2022-10-31T00:18:52;26.00;37.50
21171;DHT22;10743;52.160;20.910;2022-10-31T00:21:20;26.00;37.50
21171;DHT22;10743;52.160;20.910;2022-10-31T00:23:47;25.90;37.50
21171;DHT22;10743;52.160;20.910;2022-10-31T00:26:14;25.90;37.40
21171;DHT22;10743;52.160;20.910;2022-10-31T00:28:42;25.90;37.40
21171;DHT22;10743;52.160;20.910;2022-10-31T00:31:11;25.80;37.40
21171;DHT22;10743;52.160;20.910;2022-10-31T00:33:40;25.80;37.40
21171;DHT22;10743;52.160;20.910;2022-10-31T00:36:11;25.80;37.40
21171;DHT22;10743;52.160;20.910;2022-10-31T00:38:41;25.80;37.40
21171;DHT22;10743;52.160;20.910;2022-10-31T00:41:08;25.80;37.40
21171;DHT22;10743;52.160;20.910;2022-10-31T00:43:40;25.80;37.50
21171;DHT22;10743;52.160;20.910;2022-10-31T00:46:08;25.80;37.50
21171;DHT22;10743;52.160;20.910;2022-10-31T00:48:35;25.80;37.40
21171;DHT22;10743;52.160;20.910;2022-10-31T00:51:02;25.80;37.40
21171;DHT22;10743;52.160;20.910;2022-10-31T00:53:31;25.70;37.40
21171;DHT22;10743;52.160;20.910;2022-10-31T00:55:58;25.70;37.40
21171;DHT22;10743;52.160;20.910;2022-10-31T00:58:25;25.70;37.50
21171;DHT22;10743;52.160;20.910;2022-10-31T01:00:52;25.70;37.40
21171;DHT22;10743;52.160;20.910;2022-10-31T01:03:24;25.70;37.50
21171;DHT22;10743;52.160;20.910;2022-10-31T01:06:08;25.70;37.40
21171;DHT22;10743;52.160;20.910;2022-10-31T01:08:37;25.70;37.30
21171;DHT22;10743;52.160;20.910;2022-10-31T01:13:38;25.60;37.30
21171;DHT22;10743;52.160;20.910;2022-10-31T01:16:07;25.60;37.30
21171;DHT22;10743;52.160;20.910;2022-10-31T01:18:36;25.60;37.30
21171;DHT22;10743;52.160;20.910;2022-10-31T01:21:29;25.60;37.20
21171;DHT22;10743;52.160;20.910;2022-10-31T01:23:58;25.60;37.10
21171;DHT22;10743;52.160;20.910;2022-10-31T01:26:27;25.50;37.10
21171;DHT22;10743;52.160;20.910;2022-10-31T01:28:58;25.40;37.20
21171;DHT22;10743;52.160;20.910;2022-10-31T01:31:30;25.30;37.30
21171;DHT22;10743;52.160;20.910;2022-10-31T01:34:01;25.20;37.50
21171;DHT22;10743;52.160;20.910;2022-10-31T01:36:36;25.10;37.60
21171;DHT22;10743;52.160;20.910;2022-10-31T01:39:12;25.00;37.80
21171;DHT22;10743;52.160;20.910;2022-10-31T01:41:51;25.00;37.80
21171;DHT22;10743;52.160;20.910;2022-10-31T01:46:50;25.10;37.80
21171;DHT22;10743;52.160;20.910;2022-10-31T01:49:31;25.10;37.70
21171;DHT22;10743;52.160;20.910;2022-10-31T01:52:20;25.10;37.70
21171;DHT22;10743;52.160;20.910;2022-10-31T01:55:18;25.10;37.70
21171;DHT22;10743;52.160;20.910;2022-10-31T01:57:57;25.20;37.60
21171;DHT22;10743;52.160;20.910;2022-10-31T02:00:28;25.10;37.50
21171;DHT22;10743;52.160;20.910;2022-10-31T02:02:55;25.10;37.50
21171;DHT22;10743;52.160;20.910;2022-10-31T02:05:25;25.20;37.50
21171;DHT22;10743;52.160;20.910;2022-10-31T02:07:58;25.10;37.40
21171;DHT22;10743;52.160;20.910;2022-10-31T02:10:31;25.10;37.40
21171;DHT22;10743;52.160;20.910;2022-10-31T02:13:03;25.10;37.40
21171;DHT22;10743;52.160;20.910;2022-10-31T02:15:36;25.10;37.40
21171;DHT22;10743;52.160;20.910;2022-10-31T02:18:04;25.10;37.40
21171;DHT22;10743;52.160;20.910;2022-10-31T02:20:42;25.10;37.40
21171;DHT22;10743;52.160;20.910;2022-10-31T02:26:28;25.10;37.40
21171;DHT22;10743;52.160;20.910;2022-10-31T02:37:43;25.10;37.30
21171;DHT22;10743;52.160;20.910;2022-10-31T02:40:35;25.10;37.40
21171;DHT22;10743;52.160;20.910;2022-10-31T02:46:10;25.10;37.50
21171;DHT22;10743;52.160;20.910;2022-10-31T02:48:43;25.10;37.50
21171;DHT22;10743;52.160;20.910;2022-10-31T02:51:11;25.10;37.60
21171;DHT22;10743;52.160;20.910;2022-10-31T02:53:38;25.10;37.70
21171;DHT22;10743;52.160;20.910;2022-10-31T02:56:18;25.10;37.70
21171;DHT22;10743;52.160;20.910;2022-10-31T02:58:53;25.10;37.70
21171;DHT22;10743;52.160;20.910;2022-10-31T03:07:14;25.10;37.60
21171;DHT22;10743;52.160;20.910;2022-10-31T03:10:20;25.10;37.60
21171;DHT22;10743;52.160;20.910;2022-10-31T03:13:01;25.10;37.50
21171;DHT22;10743;52.160;20.910;2022-10-31T03:15:39;25.10;37.50
21171;DHT22;10743;52.160;20.910;2022-10-31T03:18:25;25.10;37.50
21171;DHT22;10743;52.160;20.910;2022-10-31T03:21:04;25.10;37.50
21171;DHT22;10743;52.160;20.910;2022-10-31T03:23:41;25.10;37.50
21171;DHT22;10743;52.160;20.910;2022-10-31T03:26:17;25.00;37.50
21171;DHT22;10743;52.160;20.910;2022-10-31T03:28:50;25.00;37.40
21171;DHT22;10743;52.160;20.910;2022-10-31T03:31:26;25.00;37.40
21171;DHT22;10743;52.160;20.910;2022-10-31T03:33:58;25.10;37.40
21171;DHT22;10743;52.160;20.910;2022-10-31T03:36:30;25.00;37.40
21171;DHT22;10743;52.160;20.910;2022-10-31T03:39:02;25.00;37.50
21171;DHT22;10743;52.160;20.910;2022-10-31T03:41:33;25.00;37.50
21171;DHT22;10743;52.160;20.910;2022-10-31T03:44:07;25.00;37.60
21171;DHT22;10743;52.160;20.910;2022-10-31T03:46:36;24.90;37.90
21171;DHT22;10743;52.160;20.910;2022-10-31T03:49:04;24.80;38.00
21171;DHT22;10743;52.160;20.910;2022-10-31T03:51:50;24.90;38.10
21171;DHT22;10743;52.160;20.910;2022-10-31T03:54:46;24.90;38.10
21171;DHT22;10743;52.160;20.910;2022-10-31T03:57:29;24.80;38.10
21171;DHT22;10743;52.160;20.910;2022-10-31T04:00:12;24.80;38.20
21171;DHT22;10743;52.160;20.910;2022-10-31T04:02:57;24.70;38.30
21171;DHT22;10743;52.160;20.910;2022-10-31T04:05:31;24.60;38.30
21171;DHT22;10743;52.160;20.910;2022-10-31T04:08:04;24.60;38.50
21171;DHT22;10743;52.160;20.910;2022-10-31T04:10:34;24.50;39.20
21171;DHT22;10743;52.160;20.910;2022-10-31T04:13:11;24.40;38.70
21171;DHT22;10743;52.160;20.910;2022-10-31T04:15:47;24.40;38.70
21171;DHT22;10743;52.160;20.910;2022-10-31T04:18:17;24.30;38.70
21171;DHT22;10743;52.160;20.910;2022-10-31T04:20:43;24.20;38.70
21171;DHT22;10743;52.160;20.910;2022-10-31T04:23:25;24.20;38.80
21171;DHT22;10743;52.160;20.910;2022-10-31T04:25:53;24.20;38.90
21171;DHT22;10743;52.160;20.910;2022-10-31T04:28:21;24.10;38.90
21171;DHT22;10743;52.160;20.910;2022-10-31T04:30:48;24.20;39.10
21171;DHT22;10743;52.160;20.910;2022-10-31T04:33:16;24.40;39.10
21171;DHT22;10743;52.160;20.910;2022-10-31T04:35:45;24.50;38.80
21171;DHT22;10743;52.160;20.910;2022-10-31T04:38:12;24.60;38.70
21171;DHT22;10743;52.160;20.910;2022-10-31T04:40:40;24.70;38.50
21171;DHT22;10743;52.160;20.910;2022-10-31T04:43:39;24.70;38.50
21171;DHT22;10743;52.160;20.910;2022-10-31T04:46:06;24.80;38.40
21171;DHT22;10743;52.160;20.910;2022-10-31T04:48:33;24.90;38.30
21171;DHT22;10743;52.160;20.910;2022-10-31T04:51:03;24.90;38.10
21171;DHT22;10743;52.160;20.910;2022-10-31T04:53:31;25.00;38.10
21171;DHT22;10743;52.160;20.910;2022-10-31T04:56:16;25.00;37.90
21171;DHT22;10743;52.160;20.910;2022-10-31T04:58:46;25.10;37.90
21171;DHT22;10743;52.160;20.910;2022-10-31T05:01:13;25.10;37.90
21171;DHT22;10743;52.160;20.910;2022-10-31T05:03:40;25.10;37.70
21171;DHT22;10743;52.160;20.910;2022-10-31T05:06:07;25.10;37.70
21171;DHT22;10743;52.160;20.910;2022-10-31T05:08:38;25.20;37.70
21171;DHT22;10743;52.160;20.910;2022-10-31T05:11:06;25.20;37.60
21171;DHT22;10743;52.160;20.910;2022-10-31T05:13:33;25.20;37.50
21171;DHT22;10743;52.160;20.910;2022-10-31T05:16:12;25.20;37.40
21171;DHT22;10743;52.160;20.910;2022-10-31T05:18:57;25.20;37.30
21171;DHT22;10743;52.160;20.910;2022-10-31T05:21:42;25.20;37.30
21171;DHT22;10743;52.160;20.910;2022-10-31T05:24:10;25.30;37.30
21171;DHT22;10743;52.160;20.910;2022-10-31T05:26:39;25.30;37.30
21171;DHT22;10743;52.160;20.910;2022-10-31T05:29:06;25.30;37.40
21171;DHT22;10743;52.160;20.910;2022-10-31T05:31:34;25.30;37.40
21171;DHT22;10743;52.160;20.910;2022-10-31T05:34:04;25.30;37.40
21171;DHT22;10743;52.160;20.910;2022-10-31T05:36:42;25.30;37.40
21171;DHT22;10743;52.160;20.910;2022-10-31T05:39:16;25.30;37.30
21171;DHT22;10743;52.160;20.910;2022-10-31T05:41:50;25.40;37.40
21171;DHT22;10743;52.160;20.910;2022-10-31T05:44:24;25.30;37.30
21171;DHT22;10743;52.160;20.910;2022-10-31T05:47:10;25.30;37.40
21171;DHT22;10743;52.160;20.910;2022-10-31T05:50:10;25.40;37.50
21171;DHT22;10743;52.160;20.910;2022-10-31T05:53:00;25.40;37.50
21171;DHT22;10743;52.160;20.910;2022-10-31T05:55:33;25.40;37.50
21171;DHT22;10743;52.160;20.910;2022-10-31T05:58:12;25.40;37.50
21171;DHT22;10743;52.160;20.910;2022-10-31T06:00:45;25.40;37.40
21171;DHT22;10743;52.160;20.910;2022-10-31T06:03:14;25.40;37.50
21171;DHT22;10743;52.160;20.910;2022-10-31T06:05:45;25.30;37.50
21171;DHT22;10743;52.160;20.910;2022-10-31T06:08:19;25.30;37.70
21171;DHT22;10743;52.160;20.910;2022-10-31T06:10:47;25.30;37.80
21171;DHT22;10743;52.160;20.910;2022-10-31T06:13:19;25.30;37.90
21171;DHT22;10743;52.160;20.910;2022-10-31T06:15:57;25.30;38.70
21171;DHT22;10743;52.160;20.910;2022-10-31T06:18:31;25.30;38.20
21171;DHT22;10743;52.160;20.910;2022-10-31T06:20:59;25.30;38.30
21171;DHT22;10743;52.160;20.910;2022-10-31T06:23:26;25.30;38.40
21171;DHT22;10743;52.160;20.910;2022-10-31T06:26:12;25.40;38.50
21171;DHT22;10743;52.160;20.910;2022-10-31T06:28:39;25.40;38.60
21171;DHT22;10743;52.160;20.910;2022-10-31T06:31:17;25.40;38.70
21171;DHT22;10743;52.160;20.910;2022-10-31T06:33:44;25.50;38.70
21171;DHT22;10743;52.160;20.910;2022-10-31T06:36:11;25.50;38.70
21171;DHT22;10743;52.160;20.910;2022-10-31T06:38:38;25.50;38.80
21171;DHT22;10743;52.160;20.910;2022-10-31T06:41:08;25.50;39.50
21171;DHT22;10743;52.160;20.910;2022-10-31T06:43:41;25.50;38.80
21171;DHT22;10743;52.160;20.910;2022-10-31T06:46:37;25.60;38.80
21171;DHT22;10743;52.160;20.910;2022-10-31T06:49:18;25.60;38.80
21171;DHT22;10743;52.160;20.910;2022-10-31T06:51:50;25.60;38.90
21171;DHT22;10743;52.160;20.910;2022-10-31T06:54:17;25.60;39.00
21171;DHT22;10743;52.160;20.910;2022-10-31T06:56:47;25.60;38.80
21171;DHT22;10743;52.160;20.910;2022-10-31T06:59:15;25.70;39.00
21171;DHT22;10743;52.160;20.910;2022-10-31T07:02:01;25.70;39.00
21171;DHT22;10743;52.160;20.910;2022-10-31T07:04:28;25.70;39.00
21171;DHT22;10743;52.160;20.910;2022-10-31T07:06:56;25.80;39.10
21171;DHT22;10743;52.160;20.910;2022-10-31T07:09:23;25.80;39.00
21171;DHT22;10743;52.160;20.910;2022-10-31T07:11:52;25.80;38.90
21171;DHT22;10743;52.160;20.910;2022-10-31T07:14:20;25.90;39.10
21171;DHT22;10743;52.160;20.910;2022-10-31T07:16:50;25.90;39.00
21171;DHT22;10743;52.160;20.910;2022-10-31T07:19:23;25.90;39.00
21171;DHT22;10743;52.160;20.910;2022-10-31T07:21:50;25.90;39.00
21171;DHT22;10743;52.160;20.910;2022-10-31T07:24:17;26.00;39.10
21171;DHT22;10743;52.160;20.910;2022-10-31T07:27:19;26.00;39.10
21171;DHT22;10743;52.160;20.910;2022-10-31T07:29:47;26.00;39.20
21171;DHT22;10743;52.160;20.910;2022-10-31T07:32:15;26.00;39.20
21171;DHT22;10743;52.160;20.910;2022-10-31T07:34:50;26.00;39.30
21171;DHT22;10743;52.160;20.910;2022-10-31T07:37:20;26.00;39.30
21171;DHT22;10743;52.160;20.910;2022-10-31T07:39:47;26.00;39.20
21171;DHT22;10743;52.160;20.910;2022-10-31T07:42:15;26.00;39.30
21171;DHT22;10743;52.160;20.910;2022-10-31T07:44:44;26.10;39.30
21171;DHT22;10743;52.160;20.910;2022-10-31T07:47:30;26.10;39.50
21171;DHT22;10743;52.160;20.910;2022-10-31T07:50:20;26.10;39.60
21171;DHT22;10743;52.160;20.910;2022-10-31T07:53:20;26.10;39.80
21171;DHT22;10743;52.160;20.910;2022-10-31T07:55:51;26.20;39.90
21171;DHT22;10743;52.160;20.910;2022-10-31T07:58:19;26.20;39.90
21171;DHT22;10743;52.160;20.910;2022-10-31T08:00:46;26.30;40.70
21171;DHT22;10743;52.160;20.910;2022-10-31T08:03:23;26.30;40.10
21171;DHT22;10743;52.160;20.910;2022-10-31T08:06:24;26.40;40.10
21171;DHT22;10743;52.160;20.910;2022-10-31T08:09:10;26.40;40.10
21171;DHT22;10743;52.160;20.910;2022-10-31T08:11:40;26.40;40.10
21171;DHT22;10743;52.160;20.910;2022-10-31T08:14:07;26.40;39.90
21171;DHT22;10743;52.160;20.910;2022-10-31T08:16:33;26.50;40.00
21171;DHT22;10743;52.160;20.910;2022-10-31T08:19:03;26.50;40.00
21171;DHT22;10743;52.160;20.910;2022-10-31T08:21:35;26.50;40.00
21171;DHT22;10743;52.160;20.910;2022-10-31T08:24:04;26.60;40.10
21171;DHT22;10743;52.160;20.910;2022-10-31T08:26:33;26.60;40.00
21171;DHT22;10743;52.160;20.910;2022-10-31T08:29:00;26.70;40.00
21171;DHT22;10743;52.160;20.910;2022-10-31T08:31:31;26.70;39.90
21171;DHT22;10743;52.160;20.910;2022-10-31T08:34:40;26.80;40.10
21171;DHT22;10743;52.160;20.910;2022-10-31T08:37:36;26.80;40.10
21171;DHT22;10743;52.160;20.910;2022-10-31T08:40:05;26.90;40.00
21171;DHT22;10743;52.160;20.910;2022-10-31T08:42:34;26.90;40.10
21171;DHT22;10743;52.160;20.910;2022-10-31T08:45:01;27.00;40.00
21171;DHT22;10743;52.160;20.910;2022-10-31T08:47:30;26.90;40.10
21171;DHT22;10743;52.160;20.910;2022-10-31T08:49:57;27.00;40.30
21171;DHT22;10743;52.160;20.910;2022-10-31T08:52:25;27.10;40.20
21171;DHT22;10743;52.160;20.910;2022-10-31T08:55:13;27.20;40.10
21171;DHT22;10743;52.160;20.910;2022-10-31T08:57:58;27.20;40.00
21171;DHT22;10743;52.160;20.910;2022-10-31T09:00:34;27.30;40.30
21171;DHT22;10743;52.160;20.910;2022-10-31T09:03:17;27.30;40.20
21171;DHT22;10743;52.160;20.910;2022-10-31T09:05:47;27.40;40.30
21171;DHT22;10743;52.160;20.910;2022-10-31T09:08:15;27.50;40.30
21171;DHT22;10743;52.160;20.910;2022-10-31T09:10:45;27.50;40.20
21171;DHT22;10743;52.160;20.910;2022-10-31T09:13:18;27.60;40.30
21171;DHT22;10743;52.160;20.910;2022-10-31T09:16:05;27.70;40.40
21171;DHT22;10743;52.160;20.910;2022-10-31T09:18:34;27.70;40.40
21171;DHT22;10743;52.160;20.910;2022-10-31T09:21:01;27.80;40.40
21171;DHT22;10743;52.160;20.910;2022-10-31T09:23:29;27.80;40.30
21171;DHT22;10743;52.160;20.910;2022-10-31T09:26:00;27.90;40.40
21171;DHT22;10743;52.160;20.910;2022-10-31T09:28:34;28.00;40.40
21171;DHT22;10743;52.160;20.910;2022-10-31T09:31:06;28.10;40.30
21171;DHT22;10743;52.160;20.910;2022-10-31T09:33:53;28.20;40.60
21171;DHT22;10743;52.160;20.910;2022-10-31T09:36:39;28.30;40.00
21171;DHT22;10743;52.160;20.910;2022-10-31T09:39:10;28.40;40.10
21171;DHT22;10743;52.160;20.910;2022-10-31T09:51:15;28.80;39.70
21171;DHT22;10743;52.160;20.910;2022-10-31T09:56:38;28.90;39.70
21171;DHT22;10743;52.160;20.910;2022-10-31T09:59:08;28.90;39.60
21171;DHT22;10743;52.160;20.910;2022-10-31T10:01:54;29.10;39.90
21171;DHT22;10743;52.160;20.910;2022-10-31T10:04:53;29.20;39.20
21171;DHT22;10743;52.160;20.910;2022-10-31T10:11:07;29.30;38.70
21171;DHT22;10743;52.160;20.910;2022-10-31T10:14:20;29.30;38.80
21171;DHT22;10743;52.160;20.910;2022-10-31T10:17:20;29.40;39.00
21171;DHT22;10743;52.160;20.910;2022-10-31T10:26:12;29.60;38.60
21171;DHT22;10743;52.160;20.910;2022-10-31T10:28:49;29.70;38.80
21171;DHT22;10743;52.160;20.910;2022-10-31T10:31:24;29.70;38.80
21171;DHT22;10743;52.160;20.910;2022-10-31T10:33:57;29.80;38.60
21171;DHT22;10743;52.160;20.910;2022-10-31T10:36:39;29.80;38.50
21171;DHT22;10743;52.160;20.910;2022-10-31T10:39:18;29.90;38.70
21171;DHT22;10743;52.160;20.910;2022-10-31T10:41:55;30.00;38.70
21171;DHT22;10743;52.160;20.910;2022-10-31T10:44:47;30.00;38.20
21171;DHT22;10743;52.160;20.910;2022-10-31T10:47:43;30.10;38.50
21171;DHT22;10743;52.160;20.910;2022-10-31T10:50:33;30.20;38.10
21171;DHT22;10743;52.160;20.910;2022-10-31T10:53:17;30.20;38.20
21171;DHT22;10743;52.160;20.910;2022-10-31T10:56:06;30.30;38.10
21171;DHT22;10743;52.160;20.910;2022-10-31T10:58:39;30.30;38.20
21171;DHT22;10743;52.160;20.910;2022-10-31T11:01:13;30.40;38.40
21171;DHT22;10743;52.160;20.910;2022-10-31T11:03:41;30.50;38.20
21171;DHT22;10743;52.160;20.910;2022-10-31T11:06:37;30.50;38.10
21171;DHT22;10743;52.160;20.910;2022-10-31T11:09:15;30.60;38.30
21171;DHT22;10743;52.160;20.910;2022-10-31T11:11:42;30.70;38.10
21171;DHT22;10743;52.160;20.910;2022-10-31T11:14:14;30.70;37.80
21171;DHT22;10743;52.160;20.910;2022-10-31T11:16:44;30.70;37.80
21171;DHT22;10743;52.160;20.910;2022-10-31T11:19:24;30.70;37.90
21171;DHT22;10743;52.160;20.910;2022-10-31T11:21:53;30.70;37.80
21171;DHT22;10743;52.160;20.910;2022-10-31T11:24:24;30.70;37.80
21171;DHT22;10743;52.160;20.910;2022-10-31T11:29:46;30.70;38.00
21171;DHT22;10743;52.160;20.910;2022-10-31T11:32:23;30.60;38.10
21171;DHT22;10743;52.160;20.910;2022-10-31T11:34:57;30.60;38.30
21171;DHT22;10743;52.160;20.910;2022-10-31T11:37:34;30.60;38.30
21171;DHT22;10743;52.160;20.910;2022-10-31T11:40:04;30.60;38.30
21171;DHT22;10743;52.160;20.910;2022-10-31T11:42:40;30.60;38.40
21171;DHT22;10743;52.160;20.910;2022-10-31T11:47:51;30.40;38.90
21171;DHT22;10743;52.160;20.910;2022-10-31T11:50:36;30.40;38.90
21171;DHT22;10743;52.160;20.910;2022-10-31T11:53:17;30.30;39.00
21171;DHT22;10743;52.160;20.910;2022-10-31T11:56:03;30.30;39.20
21171;DHT22;10743;52.160;20.910;2022-10-31T11:58:37;30.20;39.10
21171;DHT22;10743;52.160;20.910;2022-10-31T12:01:04;30.20;39.20
21171;DHT22;10743;52.160;20.910;2022-10-31T12:06:23;30.10;39.20
21171;DHT22;10743;52.160;20.910;2022-10-31T12:08:51;30.10;39.40
21171;DHT22;10743;52.160;20.910;2022-10-31T12:17:57;30.00;39.80
21171;DHT22;10743;52.160;20.910;2022-10-31T12:27:10;29.90;40.20
21171;DHT22;10743;52.160;20.910;2022-10-31T12:30:21;30.00;40.20
21171;DHT22;10743;52.160;20.910;2022-10-31T12:36:10;29.90;40.30
21171;DHT22;10743;52.160;20.910;2022-10-31T12:39:16;29.90;40.50
21171;DHT22;10743;52.160;20.910;2022-10-31T12:41:51;29.90;40.40
21171;DHT22;10743;52.160;20.910;2022-10-31T12:47:36;29.80;40.40
21171;DHT22;10743;52.160;20.910;2022-10-31T12:53:41;29.90;40.40
21171;DHT22;10743;52.160;20.910;2022-10-31T12:56:43;29.90;40.50
21171;DHT22;10743;52.160;20.910;2022-10-31T12:59:30;29.90;40.60
21171;DHT22;10743;52.160;20.910;2022-10-31T13:02:16;29.80;40.60
21171;DHT22;10743;52.160;20.910;2022-10-31T13:05:00;29.80;40.80
21171;DHT22;10743;52.160;20.910;2022-10-31T13:08:03;29.70;40.90
21171;DHT22;10743;52.160;20.910;2022-10-31T13:10:46;29.70;40.90
21171;DHT22;10743;52.160;20.910;2022-10-31T13:16:30;29.70;40.90
21171;DHT22;10743;52.160;20.910;2022-10-31T13:19:07;29.70;40.90
21171;DHT22;10743;52.160;20.910;2022-10-31T13:22:16;29.70;40.90
21171;DHT22;10743;52.160;20.910;2022-10-31T13:25:09;29.70;40.90
21171;DHT22;10743;52.160;20.910;2022-10-31T13:27:56;29.70;41.20
21171;DHT22;10743;52.160;20.910;2022-10-31T13:30:38;29.60;41.20
21171;DHT22;10743;52.160;20.910;2022-10-31T13:33:20;29.60;41.20
21171;DHT22;10743;52.160;20.910;2022-10-31T13:36:12;29.60;41.20
21171;DHT22;10743;52.160;20.910;2022-10-31T13:42:03;29.70;41.00
21171;DHT22;10743;52.160;20.910;2022-10-31T13:44:36;29.70;40.90
21171;DHT22;10743;52.160;20.910;2022-10-31T13:47:26;29.70;41.00
21171;DHT22;10743;52.160;20.910;2022-10-31T13:50:14;29.70;41.00
21171;DHT22;10743;52.160;20.910;2022-10-31T13:52:46;29.70;41.00
21171;DHT22;10743;52.160;20.910;2022-10-31T13:55:35;29.70;40.90
21171;DHT22;10743;52.160;20.910;2022-10-31T13:58:25;29.70;40.90
21171;DHT22;10743;52.160;20.910;2022-10-31T14:01:21;29.70;40.90
21171;DHT22;10743;52.160;20.910;2022-10-31T14:04:14;29.70;41.00
21171;DHT22;10743;52.160;20.910;2022-10-31T14:06:57;29.60;40.90
21171;DHT22;10743;52.160;20.910;2022-10-31T14:12:04;29.60;40.90
21171;DHT22;10743;52.160;20.910;2022-10-31T14:14:41;29.60;41.00
21171;DHT22;10743;52.160;20.910;2022-10-31T14:17:48;29.70;41.00
21171;DHT22;10743;52.160;20.910;2022-10-31T14:20:31;29.60;41.00
21171;DHT22;10743;52.160;20.910;2022-10-31T14:23:55;29.60;40.90
21171;DHT22;10743;52.160;20.910;2022-10-31T14:28:58;29.60;41.00
21171;DHT22;10743;52.160;20.910;2022-10-31T14:31:42;29.60;41.80
21171;DHT22;10743;52.160;20.910;2022-10-31T14:34:30;29.60;41.30
21171;DHT22;10743;52.160;20.910;2022-10-31T14:37:16;29.50;41.40
21171;DHT22;10743;52.160;20.910;2022-10-31T14:45:54;29.50;41.70
21171;DHT22;10743;52.160;20.910;2022-10-31T14:48:50;29.50;41.70
21171;DHT22;10743;52.160;20.910;2022-10-31T14:51:22;29.50;41.80
21171;DHT22;10743;52.160;20.910;2022-10-31T14:53:52;29.60;41.70
21171;DHT22;10743;52.160;20.910;2022-10-31T14:56:32;29.50;41.70
21171;DHT22;10743;52.160;20.910;2022-10-31T14:59:04;29.50;41.70
21171;DHT22;10743;52.160;20.910;2022-10-31T15:01:36;29.50;41.70
21171;DHT22;10743;52.160;20.910;2022-10-31T15:04:15;29.50;41.60
21171;DHT22;10743;52.160;20.910;2022-10-31T15:06:57;29.50;41.50
21171;DHT22;10743;52.160;20.910;2022-10-31T15:09:29;29.50;41.60
21171;DHT22;10743;52.160;20.910;2022-10-31T15:12:01;29.50;41.60
21171;DHT22;10743;52.160;20.910;2022-10-31T15:15:19;29.50;41.60
21171;DHT22;10743;52.160;20.910;2022-10-31T15:18:00;29.50;41.70
21171;DHT22;10743;52.160;20.910;2022-10-31T15:20:42;29.50;41.70
21171;DHT22;10743;52.160;20.910;2022-10-31T15:23:16;29.50;41.80
21171;DHT22;10743;52.160;20.910;2022-10-31T15:25:46;29.40;41.70
21171;DHT22;10743;52.160;20.910;2022-10-31T15:28:16;29.40;41.80
21171;DHT22;10743;52.160;20.910;2022-10-31T15:30:51;29.40;41.80
21171;DHT22;10743;52.160;20.910;2022-10-31T15:33:24;29.30;41.70
21171;DHT22;10743;52.160;20.910;2022-10-31T15:36:22;29.30;41.80
21171;DHT22;10743;52.160;20.910;2022-10-31T15:38:58;29.40;41.80
21171;DHT22;10743;52.160;20.910;2022-10-31T15:44:14;29.30;41.70
21171;DHT22;10743;52.160;20.910;2022-10-31T15:46:42;29.40;41.70
21171;DHT22;10743;52.160;20.910;2022-10-31T15:49:25;29.40;41.60
21171;DHT22;10743;52.160;20.910;2022-10-31T15:51:53;29.30;41.60
21171;DHT22;10743;52.160;20.910;2022-10-31T15:54:20;29.30;41.60
21171;DHT22;10743;52.160;20.910;2022-10-31T15:56:48;29.30;41.60
21171;DHT22;10743;52.160;20.910;2022-10-31T15:59:21;29.30;41.60
21171;DHT22;10743;52.160;20.910;2022-10-31T16:02:03;29.30;41.60
21171;DHT22;10743;52.160;20.910;2022-10-31T16:04:36;29.30;41.70
21171;DHT22;10743;52.160;20.910;2022-10-31T16:07:15;29.30;41.70
21171;DHT22;10743;52.160;20.910;2022-10-31T16:10:00;29.30;41.70
21171;DHT22;10743;52.160;20.910;2022-10-31T16:12:34;29.30;41.70
21171;DHT22;10743;52.160;20.910;2022-10-31T16:15:04;29.30;41.80
21171;DHT22;10743;52.160;20.910;2022-10-31T16:17:31;29.30;41.80
21171;DHT22;10743;52.160;20.910;2022-10-31T16:20:00;29.30;41.90
21171;DHT22;10743;52.160;20.910;2022-10-31T16:22:37;29.20;42.00
21171;DHT22;10743;52.160;20.910;2022-10-31T16:25:10;29.30;42.10
21171;DHT22;10743;52.160;20.910;2022-10-31T16:27:39;29.30;42.20
21171;DHT22;10743;52.160;20.910;2022-10-31T16:30:30;29.30;42.30
21171;DHT22;10743;52.160;20.910;2022-10-31T16:33:03;29.30;42.40
21171;DHT22;10743;52.160;20.910;2022-10-31T16:35:36;29.20;42.40
21171;DHT22;10743;52.160;20.910;2022-10-31T16:38:04;29.20;42.40
21171;DHT22;10743;52.160;20.910;2022-10-31T16:40:32;29.30;42.50
21171;DHT22;10743;52.160;20.910;2022-10-31T16:43:00;29.20;42.50
21171;DHT22;10743;52.160;20.910;2022-10-31T16:45:30;29.20;42.40
21171;DHT22;10743;52.160;20.910;2022-10-31T16:48:08;29.30;42.50
21171;DHT22;10743;52.160;20.910;2022-10-31T16:50:38;29.30;42.50
21171;DHT22;10743;52.160;20.910;2022-10-31T16:53:05;29.30;42.60
21171;DHT22;10743;52.160;20.910;2022-10-31T16:56:01;29.30;42.70
21171;DHT22;10743;52.160;20.910;2022-10-31T16:58:31;29.20;42.70
21171;DHT22;10743;52.160;20.910;2022-10-31T17:01:00;29.30;42.70
21171;DHT22;10743;52.160;20.910;2022-10-31T17:03:29;29.30;42.70
21171;DHT22;10743;52.160;20.910;2022-10-31T17:05:56;29.30;42.80
21171;DHT22;10743;52.160;20.910;2022-10-31T17:08:24;29.30;42.80
21171;DHT22;10743;52.160;20.910;2022-10-31T17:10:54;29.20;42.80
21171;DHT22;10743;52.160;20.910;2022-10-31T17:13:23;29.30;42.80
21171;DHT22;10743;52.160;20.910;2022-10-31T17:15:58;29.30;42.90
21171;DHT22;10743;52.160;20.910;2022-10-31T17:18:25;29.30;42.90
21171;DHT22;10743;52.160;20.910;2022-10-31T17:21:02;29.30;42.80
21171;DHT22;10743;52.160;20.910;2022-10-31T17:23:31;29.30;42.90
21171;DHT22;10743;52.160;20.910;2022-10-31T17:25:59;29.30;43.00
21171;DHT22;10743;52.160;20.910;2022-10-31T17:28:25;29.30;42.90
21171;DHT22;10743;52.160;20.910;2022-10-31T17:30:56;29.30;42.90
21171;DHT22;10743;52.160;20.910;2022-10-31T17:33:24;29.30;42.90
21171;DHT22;10743;52.160;20.910;2022-10-31T17:35:51;29.30;42.80
21171;DHT22;10743;52.160;20.910;2022-10-31T17:38:18;29.30;42.80
21171;DHT22;10743;52.160;20.910;2022-10-31T17:40:45;29.30;42.80
21171;DHT22;10743;52.160;20.910;2022-10-31T17:43:17;29.30;42.80
21171;DHT22;10743;52.160;20.910;2022-10-31T17:45:44;29.30;42.70
21171;DHT22;10743;52.160;20.910;2022-10-31T17:48:11;29.30;42.80